Shoyo Maru — JLOJ — position and weather

sailwx.info

Track history (hours):
 
Tides and Currents Weather Stations Pressure Air Temp Water Temp Dewpoint Dewpoint Depression Visibility Wind Speed Wind Dir Waves Ship Positions

Oceanographic research ship Shoyo Maru (Japan)

Detailed information on ship capabilities available from University of Delaware's Ocean Information Center.

Last reported at 2019-Apr-13 05:10 UTC. Time now 2019-Apr-25 10:25 UTC.
Position N 34°38' E 135°28'.
Warning: this ship's position is 12 days out of date.

Length 87.6 m; beam 14 m.

Type: Other ship. MMSI: 431465000.

Date/timePositionNaut miles runAvg speedWind from/ knotsBaromVisibWave heightAir tempDewpointWater temp
2019-Apr-13 05:10N 34°38' E 135°28'0 0.0
2019-Apr-13 05:00N 34°38' E 135°28'1 1.8
2019-Apr-13 04:30N 34°37' E 135°27'3 6.1
2019-Apr-13 04:00N 34°38' E 135°24'4 8.6
2019-Apr-13 03:31N 34°36' E 135°20'4 8.6
2019-Apr-13 03:01N 34°33' E 135°16'510.2
2019-Apr-13 02:31N 34°29' E 135°12'510.2
2019-Apr-13 02:01N 34°26' E 135°07'510.3
2019-Apr-13 01:30N 34°22' E 135°03'4 8.9
2019-Apr-13 01:01N 34°19' E 134°60'612.2
2019-Apr-13 00:31N 34°13' E 134°60'713.3
2019-Apr-13 00:01N 34°06' E 135°00'713.8
2019-Apr-12 23:31N 33°59' E 135°01'714.1
2019-Apr-12 23:00N 33°52' E 134°58'814.4
2019-Apr-12 22:27N 33°46' E 135°05'714.9
2019-Apr-12 22:00N 33°42' E 135°11'23413.2
2019-Apr-12 04:16N 35°01' E 139°37'414.5
2019-Apr-12 04:00N 35°04' E 139°40'714.7
2019-Apr-12 03:30N 35°10' E 139°45'612.8
2019-Apr-12 03:00N 35°17' E 139°45'612.9
2019-Apr-12 02:31N 35°23' E 139°42'714.8
2019-Apr-12 02:01N 35°28' E 139°49'612.2
2019-Apr-12 01:31N 35°34' E 139°49'  
Track history (hours):
 
Tides and Currents Weather Stations Pressure Air Temp Water Temp Dewpoint Dewpoint Depression Visibility Wind Speed Wind Dir Waves Ship Positions

Oceanographic research ship Shoyo Maru (Japan)

Detailed information on ship capabilities available from University of Delaware's Ocean Information Center.

Last reported at 2019-Apr-13 05:10 UTC. Time now 2019-Apr-25 10:25 UTC.
Position N 34°38' E 135°28'.
Warning: this ship's position is 12 days out of date.

Length 87.6 m; beam 14 m.

Type: Other ship. MMSI: 431465000.

Date/timePositionNaut miles runAvg speedWind from/ knotsBaromVisibWave heightAir tempDewpointWater temp
2019-Apr-13 05:10N 34°38' E 135°28'0 0.0
2019-Apr-13 05:00N 34°38' E 135°28'1 1.8
2019-Apr-13 04:30N 34°37' E 135°27'3 6.1
2019-Apr-13 04:00N 34°38' E 135°24'4 8.6
2019-Apr-13 03:31N 34°36' E 135°20'4 8.6
2019-Apr-13 03:01N 34°33' E 135°16'510.2
2019-Apr-13 02:31N 34°29' E 135°12'510.2
2019-Apr-13 02:01N 34°26' E 135°07'510.3
2019-Apr-13 01:30N 34°22' E 135°03'4 8.9
2019-Apr-13 01:01N 34°19' E 134°60'612.2
2019-Apr-13 00:31N 34°13' E 134°60'713.3
2019-Apr-13 00:01N 34°06' E 135°00'713.8
2019-Apr-12 23:31N 33°59' E 135°01'714.1
2019-Apr-12 23:00N 33°52' E 134°58'814.4
2019-Apr-12 22:27N 33°46' E 135°05'714.9
2019-Apr-12 22:00N 33°42' E 135°11'23413.2
2019-Apr-12 04:16N 35°01' E 139°37'414.5
2019-Apr-12 04:00N 35°04' E 139°40'714.7
2019-Apr-12 03:30N 35°10' E 139°45'612.8
2019-Apr-12 03:00N 35°17' E 139°45'612.9
2019-Apr-12 02:31N 35°23' E 139°42'714.8
2019-Apr-12 02:01N 35°28' E 139°49'612.2
2019-Apr-12 01:31N 35°34' E 139°49'  

Dump ship's entire track history